sensor_id;sensor_type;location;lat;lon;timestamp;P1;durP1;ratioP1;P2;durP2;ratioP2
72573;SDS011;60603;52.548;13.420;2024-01-15T00:00:20;13.27;;;6.63;;
72573;SDS011;60603;52.548;13.420;2024-01-15T00:03:07;14.65;;;5.97;;
72573;SDS011;60603;52.548;13.420;2024-01-15T00:05:34;13.13;;;6.38;;
72573;SDS011;60603;52.548;13.420;2024-01-15T00:08:01;12.70;;;6.13;;
72573;SDS011;60603;52.548;13.420;2024-01-15T00:10:28;13.00;;;5.95;;
72573;SDS011;60603;52.548;13.420;2024-01-15T00:12:55;12.98;;;5.85;;
72573;SDS011;60603;52.548;13.420;2024-01-15T00:15:21;13.52;;;6.07;;
72573;SDS011;60603;52.548;13.420;2024-01-15T00:17:49;12.88;;;6.45;;
72573;SDS011;60603;52.548;13.420;2024-01-15T00:20:15;11.07;;;5.95;;
72573;SDS011;60603;52.548;13.420;2024-01-15T00:22:42;15.13;;;6.65;;
72573;SDS011;60603;52.548;13.420;2024-01-15T00:25:09;13.07;;;6.30;;
72573;SDS011;60603;52.548;13.420;2024-01-15T00:27:36;14.20;;;6.03;;
72573;SDS011;60603;52.548;13.420;2024-01-15T00:30:03;13.57;;;6.35;;
72573;SDS011;60603;52.548;13.420;2024-01-15T00:32:31;12.68;;;5.15;;
72573;SDS011;60603;52.548;13.420;2024-01-15T00:34:58;12.40;;;6.35;;
72573;SDS011;60603;52.548;13.420;2024-01-15T00:37:25;11.15;;;5.60;;
72573;SDS011;60603;52.548;13.420;2024-01-15T00:39:51;10.98;;;5.28;;
72573;SDS011;60603;52.548;13.420;2024-01-15T00:42:19;12.93;;;6.22;;
72573;SDS011;60603;52.548;13.420;2024-01-15T00:44:46;16.85;;;6.78;;
72573;SDS011;60603;52.548;13.420;2024-01-15T00:47:12;14.95;;;5.97;;
72573;SDS011;60603;52.548;13.420;2024-01-15T00:49:39;14.63;;;6.47;;
72573;SDS011;60603;52.548;13.420;2024-01-15T00:52:06;12.98;;;6.00;;
72573;SDS011;60603;52.548;13.420;2024-01-15T00:54:33;11.90;;;5.65;;
72573;SDS011;60603;52.548;13.420;2024-01-15T00:57:00;11.45;;;5.93;;
72573;SDS011;60603;52.548;13.420;2024-01-15T00:59:27;14.70;;;6.15;;
72573;SDS011;60603;52.548;13.420;2024-01-15T01:01:54;14.13;;;5.70;;
72573;SDS011;60603;52.548;13.420;2024-01-15T01:04:21;14.68;;;6.82;;
72573;SDS011;60603;52.548;13.420;2024-01-15T01:06:48;14.90;;;5.60;;
72573;SDS011;60603;52.548;13.420;2024-01-15T01:09:15;12.48;;;5.90;;
72573;SDS011;60603;52.548;13.420;2024-01-15T01:11:42;11.00;;;5.28;;
72573;SDS011;60603;52.548;13.420;2024-01-15T01:14:09;13.20;;;5.60;;
72573;SDS011;60603;52.548;13.420;2024-01-15T01:16:35;11.43;;;5.65;;
72573;SDS011;60603;52.548;13.420;2024-01-15T01:19:06;15.20;;;6.43;;
72573;SDS011;60603;52.548;13.420;2024-01-15T01:21:34;13.20;;;5.88;;
72573;SDS011;60603;52.548;13.420;2024-01-15T01:24:01;14.63;;;5.88;;
72573;SDS011;60603;52.548;13.420;2024-01-15T01:26:28;17.83;;;6.15;;
72573;SDS011;60603;52.548;13.420;2024-01-15T01:28:55;15.27;;;5.93;;
72573;SDS011;60603;52.548;13.420;2024-01-15T01:31:22;17.48;;;7.35;;
72573;SDS011;60603;52.548;13.420;2024-01-15T01:33:50;16.27;;;6.85;;
72573;SDS011;60603;52.548;13.420;2024-01-15T01:36:17;15.38;;;7.10;;
72573;SDS011;60603;52.548;13.420;2024-01-15T01:38:44;15.40;;;6.57;;
72573;SDS011;60603;52.548;13.420;2024-01-15T01:41:11;14.73;;;6.15;;
72573;SDS011;60603;52.548;13.420;2024-01-15T01:43:37;14.15;;;6.50;;
72573;SDS011;60603;52.548;13.420;2024-01-15T01:46:04;14.82;;;6.45;;
72573;SDS011;60603;52.548;13.420;2024-01-15T01:48:31;16.92;;;6.55;;
72573;SDS011;60603;52.548;13.420;2024-01-15T01:50:59;13.77;;;6.07;;
72573;SDS011;60603;52.548;13.420;2024-01-15T01:53:26;17.38;;;7.63;;
72573;SDS011;60603;52.548;13.420;2024-01-15T01:55:54;17.13;;;7.55;;
72573;SDS011;60603;52.548;13.420;2024-01-15T01:58:22;17.77;;;8.38;;
72573;SDS011;60603;52.548;13.420;2024-01-15T02:00:49;14.27;;;6.15;;
72573;SDS011;60603;52.548;13.420;2024-01-15T02:03:16;13.73;;;5.85;;
72573;SDS011;60603;52.548;13.420;2024-01-15T02:05:43;14.60;;;6.75;;
72573;SDS011;60603;52.548;13.420;2024-01-15T02:08:13;14.55;;;5.68;;
72573;SDS011;60603;52.548;13.420;2024-01-15T02:10:40;13.45;;;6.35;;
72573;SDS011;60603;52.548;13.420;2024-01-15T02:13:07;14.38;;;6.55;;
72573;SDS011;60603;52.548;13.420;2024-01-15T02:15:34;15.38;;;6.95;;
72573;SDS011;60603;52.548;13.420;2024-01-15T02:18:01;16.17;;;6.78;;
72573;SDS011;60603;52.548;13.420;2024-01-15T02:20:31;13.68;;;6.20;;
72573;SDS011;60603;52.548;13.420;2024-01-15T02:23:16;17.13;;;6.32;;
72573;SDS011;60603;52.548;13.420;2024-01-15T02:25:46;15.00;;;6.55;;
72573;SDS011;60603;52.548;13.420;2024-01-15T02:28:17;16.95;;;5.70;;
72573;SDS011;60603;52.548;13.420;2024-01-15T02:30:45;13.48;;;5.57;;
72573;SDS011;60603;52.548;13.420;2024-01-15T02:33:12;12.00;;;5.55;;
72573;SDS011;60603;52.548;13.420;2024-01-15T02:35:40;11.02;;;4.85;;
72573;SDS011;60603;52.548;13.420;2024-01-15T02:38:07;10.55;;;4.63;;
72573;SDS011;60603;52.548;13.420;2024-01-15T02:40:35;13.15;;;4.90;;
72573;SDS011;60603;52.548;13.420;2024-01-15T02:43:02;13.30;;;4.15;;
72573;SDS011;60603;52.548;13.420;2024-01-15T02:45:29;10.07;;;4.35;;
72573;SDS011;60603;52.548;13.420;2024-01-15T02:47:56;9.80;;;3.80;;
72573;SDS011;60603;52.548;13.420;2024-01-15T02:50:23;11.15;;;5.25;;
72573;SDS011;60603;52.548;13.420;2024-01-15T02:52:50;9.80;;;4.28;;
72573;SDS011;60603;52.548;13.420;2024-01-15T02:55:17;9.20;;;4.38;;
72573;SDS011;60603;52.548;13.420;2024-01-15T02:57:43;9.45;;;4.28;;
72573;SDS011;60603;52.548;13.420;2024-01-15T03:00:11;10.63;;;4.38;;
72573;SDS011;60603;52.548;13.420;2024-01-15T03:02:38;8.20;;;3.83;;
72573;SDS011;60603;52.548;13.420;2024-01-15T03:05:11;12.07;;;5.07;;
72573;SDS011;60603;52.548;13.420;2024-01-15T03:07:38;10.52;;;4.45;;
72573;SDS011;60603;52.548;13.420;2024-01-15T03:10:05;10.50;;;4.55;;
72573;SDS011;60603;52.548;13.420;2024-01-15T03:12:33;8.55;;;3.40;;
72573;SDS011;60603;52.548;13.420;2024-01-15T03:15:00;9.23;;;3.83;;
72573;SDS011;60603;52.548;13.420;2024-01-15T03:17:27;9.43;;;4.05;;
72573;SDS011;60603;52.548;13.420;2024-01-15T03:19:54;8.90;;;3.70;;
72573;SDS011;60603;52.548;13.420;2024-01-15T03:22:21;8.02;;;3.60;;
72573;SDS011;60603;52.548;13.420;2024-01-15T03:24:48;7.80;;;3.78;;
72573;SDS011;60603;52.548;13.420;2024-01-15T03:27:15;8.30;;;3.28;;
72573;SDS011;60603;52.548;13.420;2024-01-15T03:29:42;10.57;;;4.68;;
72573;SDS011;60603;52.548;13.420;2024-01-15T03:32:08;9.75;;;3.95;;
72573;SDS011;60603;52.548;13.420;2024-01-15T03:34:35;10.00;;;3.85;;
72573;SDS011;60603;52.548;13.420;2024-01-15T03:37:02;10.10;;;4.88;;
72573;SDS011;60603;52.548;13.420;2024-01-15T03:39:30;8.98;;;4.20;;
72573;SDS011;60603;52.548;13.420;2024-01-15T03:41:57;8.50;;;3.22;;
72573;SDS011;60603;52.548;13.420;2024-01-15T03:44:24;9.57;;;3.90;;
72573;SDS011;60603;52.548;13.420;2024-01-15T03:46:51;9.85;;;4.15;;
72573;SDS011;60603;52.548;13.420;2024-01-15T03:49:18;8.98;;;3.50;;
72573;SDS011;60603;52.548;13.420;2024-01-15T03:51:45;10.13;;;3.85;;
72573;SDS011;60603;52.548;13.420;2024-01-15T03:54:12;13.77;;;3.83;;
72573;SDS011;60603;52.548;13.420;2024-01-15T03:56:39;9.40;;;3.55;;
72573;SDS011;60603;52.548;13.420;2024-01-15T03:59:06;11.32;;;3.42;;
72573;SDS011;60603;52.548;13.420;2024-01-15T04:01:33;12.80;;;3.55;;
72573;SDS011;60603;52.548;13.420;2024-01-15T04:04:00;9.10;;;3.67;;
72573;SDS011;60603;52.548;13.420;2024-01-15T04:06:26;15.05;;;4.25;;
72573;SDS011;60603;52.548;13.420;2024-01-15T04:08:54;11.98;;;3.80;;
72573;SDS011;60603;52.548;13.420;2024-01-15T04:11:20;9.43;;;3.90;;
72573;SDS011;60603;52.548;13.420;2024-01-15T04:13:49;6.72;;;2.85;;
72573;SDS011;60603;52.548;13.420;2024-01-15T04:16:15;14.43;;;4.30;;
72573;SDS011;60603;52.548;13.420;2024-01-15T04:18:42;10.48;;;4.25;;
72573;SDS011;60603;52.548;13.420;2024-01-15T04:21:09;12.65;;;4.18;;
72573;SDS011;60603;52.548;13.420;2024-01-15T04:23:36;11.35;;;3.17;;
72573;SDS011;60603;52.548;13.420;2024-01-15T04:26:03;8.55;;;3.85;;
72573;SDS011;60603;52.548;13.420;2024-01-15T04:28:30;8.07;;;3.30;;
72573;SDS011;60603;52.548;13.420;2024-01-15T04:30:57;8.95;;;3.58;;
72573;SDS011;60603;52.548;13.420;2024-01-15T04:33:24;8.57;;;3.28;;
72573;SDS011;60603;52.548;13.420;2024-01-15T04:35:51;9.13;;;3.53;;
72573;SDS011;60603;52.548;13.420;2024-01-15T04:38:18;10.15;;;3.97;;
72573;SDS011;60603;52.548;13.420;2024-01-15T04:40:44;9.25;;;3.50;;
72573;SDS011;60603;52.548;13.420;2024-01-15T04:43:11;10.02;;;3.22;;
72573;SDS011;60603;52.548;13.420;2024-01-15T04:45:38;8.50;;;3.20;;
72573;SDS011;60603;52.548;13.420;2024-01-15T04:48:05;9.18;;;4.00;;
72573;SDS011;60603;52.548;13.420;2024-01-15T04:50:32;9.70;;;3.22;;
72573;SDS011;60603;52.548;13.420;2024-01-15T04:52:59;6.55;;;2.40;;
72573;SDS011;60603;52.548;13.420;2024-01-15T04:55:26;10.10;;;3.97;;
72573;SDS011;60603;52.548;13.420;2024-01-15T04:57:53;9.18;;;3.55;;
72573;SDS011;60603;52.548;13.420;2024-01-15T05:00:19;8.57;;;2.70;;
72573;SDS011;60603;52.548;13.420;2024-01-15T05:02:47;12.40;;;2.80;;
72573;SDS011;60603;52.548;13.420;2024-01-15T05:05:13;8.32;;;3.08;;
72573;SDS011;60603;52.548;13.420;2024-01-15T05:07:40;7.88;;;2.30;;
72573;SDS011;60603;52.548;13.420;2024-01-15T05:10:07;10.30;;;3.97;;
72573;SDS011;60603;52.548;13.420;2024-01-15T05:12:34;11.88;;;2.75;;
72573;SDS011;60603;52.548;13.420;2024-01-15T05:15:02;11.32;;;2.95;;
72573;SDS011;60603;52.548;13.420;2024-01-15T05:17:29;9.68;;;2.55;;
72573;SDS011;60603;52.548;13.420;2024-01-15T05:19:57;10.73;;;2.83;;
72573;SDS011;60603;52.548;13.420;2024-01-15T05:22:24;10.85;;;4.53;;
72573;SDS011;60603;52.548;13.420;2024-01-15T05:24:51;6.85;;;2.20;;
72573;SDS011;60603;52.548;13.420;2024-01-15T05:27:18;6.40;;;1.80;;
72573;SDS011;60603;52.548;13.420;2024-01-15T05:29:45;9.45;;;2.75;;
72573;SDS011;60603;52.548;13.420;2024-01-15T05:32:12;5.78;;;1.90;;
72573;SDS011;60603;52.548;13.420;2024-01-15T05:34:39;13.40;;;2.80;;
72573;SDS011;60603;52.548;13.420;2024-01-15T05:37:06;7.45;;;2.05;;
72573;SDS011;60603;52.548;13.420;2024-01-15T05:39:33;6.50;;;1.98;;
72573;SDS011;60603;52.548;13.420;2024-01-15T05:42:00;5.57;;;2.25;;
72573;SDS011;60603;52.548;13.420;2024-01-15T05:44:27;8.73;;;2.25;;
72573;SDS011;60603;52.548;13.420;2024-01-15T05:46:54;8.32;;;2.55;;
72573;SDS011;60603;52.548;13.420;2024-01-15T05:49:21;9.80;;;2.63;;
72573;SDS011;60603;52.548;13.420;2024-01-15T05:51:48;4.05;;;1.90;;
72573;SDS011;60603;52.548;13.420;2024-01-15T05:54:15;9.10;;;2.30;;
72573;SDS011;60603;52.548;13.420;2024-01-15T05:56:42;6.25;;;1.80;;
72573;SDS011;60603;52.548;13.420;2024-01-15T05:59:09;10.52;;;1.85;;
72573;SDS011;60603;52.548;13.420;2024-01-15T06:01:40;5.50;;;1.70;;
72573;SDS011;60603;52.548;13.420;2024-01-15T06:04:07;4.63;;;2.03;;
72573;SDS011;60603;52.548;13.420;2024-01-15T06:06:34;8.18;;;2.13;;
72573;SDS011;60603;52.548;13.420;2024-01-15T06:09:01;7.40;;;1.60;;
72573;SDS011;60603;52.548;13.420;2024-01-15T06:13:58;5.05;;;1.52;;
72573;SDS011;60603;52.548;13.420;2024-01-15T06:16:27;7.53;;;1.75;;
72573;SDS011;60603;52.548;13.420;2024-01-15T06:18:54;6.53;;;1.55;;
72573;SDS011;60603;52.548;13.420;2024-01-15T06:21:21;5.10;;;1.40;;
72573;SDS011;60603;52.548;13.420;2024-01-15T06:23:48;9.35;;;1.85;;
72573;SDS011;60603;52.548;13.420;2024-01-15T06:26:15;5.40;;;1.70;;
72573;SDS011;60603;52.548;13.420;2024-01-15T06:28:45;8.63;;;1.85;;
72573;SDS011;60603;52.548;13.420;2024-01-15T06:31:12;5.97;;;2.13;;
72573;SDS011;60603;52.548;13.420;2024-01-15T06:33:39;5.22;;;1.38;;
72573;SDS011;60603;52.548;13.420;2024-01-15T06:36:07;8.00;;;1.70;;
72573;SDS011;60603;52.548;13.420;2024-01-15T06:38:34;7.95;;;1.60;;
72573;SDS011;60603;52.548;13.420;2024-01-15T06:41:01;4.72;;;1.88;;
72573;SDS011;60603;52.548;13.420;2024-01-15T06:43:27;8.68;;;2.00;;
72573;SDS011;60603;52.548;13.420;2024-01-15T06:45:56;5.70;;;1.70;;
72573;SDS011;60603;52.548;13.420;2024-01-15T06:48:22;4.85;;;1.50;;
72573;SDS011;60603;52.548;13.420;2024-01-15T06:50:50;4.43;;;1.52;;
72573;SDS011;60603;52.548;13.420;2024-01-15T06:53:16;5.63;;;1.55;;
72573;SDS011;60603;52.548;13.420;2024-01-15T06:55:43;3.90;;;0.90;;
72573;SDS011;60603;52.548;13.420;2024-01-15T06:58:10;5.38;;;1.45;;
72573;SDS011;60603;52.548;13.420;2024-01-15T07:00:37;6.20;;;1.73;;
72573;SDS011;60603;52.548;13.420;2024-01-15T07:03:04;5.72;;;1.33;;
72573;SDS011;60603;52.548;13.420;2024-01-15T07:05:31;9.35;;;1.88;;
72573;SDS011;60603;52.548;13.420;2024-01-15T07:07:58;5.65;;;1.50;;
72573;SDS011;60603;52.548;13.420;2024-01-15T07:10:25;7.07;;;1.70;;
72573;SDS011;60603;52.548;13.420;2024-01-15T07:12:52;5.68;;;1.33;;
72573;SDS011;60603;52.548;13.420;2024-01-15T07:15:20;5.65;;;1.30;;
72573;SDS011;60603;52.548;13.420;2024-01-15T07:17:47;6.00;;;1.70;;
72573;SDS011;60603;52.548;13.420;2024-01-15T07:20:14;8.18;;;1.80;;
72573;SDS011;60603;52.548;13.420;2024-01-15T07:22:42;6.80;;;1.95;;
72573;SDS011;60603;52.548;13.420;2024-01-15T07:25:09;4.93;;;1.80;;
72573;SDS011;60603;52.548;13.420;2024-01-15T07:27:35;9.05;;;1.67;;
72573;SDS011;60603;52.548;13.420;2024-01-15T07:30:02;10.98;;;1.98;;
72573;SDS011;60603;52.548;13.420;2024-01-15T07:32:32;7.10;;;1.70;;
72573;SDS011;60603;52.548;13.420;2024-01-15T07:34:59;8.70;;;2.15;;
72573;SDS011;60603;52.548;13.420;2024-01-15T07:37:26;4.00;;;1.10;;
72573;SDS011;60603;52.548;13.420;2024-01-15T07:39:53;7.18;;;1.80;;
72573;SDS011;60603;52.548;13.420;2024-01-15T07:42:20;5.90;;;1.27;;
72573;SDS011;60603;52.548;13.420;2024-01-15T07:44:47;5.35;;;1.50;;
72573;SDS011;60603;52.548;13.420;2024-01-15T07:47:14;9.40;;;2.00;;
72573;SDS011;60603;52.548;13.420;2024-01-15T07:49:41;10.23;;;1.67;;
72573;SDS011;60603;52.548;13.420;2024-01-15T07:52:08;4.07;;;1.40;;
72573;SDS011;60603;52.548;13.420;2024-01-15T07:54:35;7.65;;;1.58;;
72573;SDS011;60603;52.548;13.420;2024-01-15T07:57:02;4.65;;;1.42;;
72573;SDS011;60603;52.548;13.420;2024-01-15T07:59:32;10.77;;;1.50;;
72573;SDS011;60603;52.548;13.420;2024-01-15T08:01:59;6.22;;;1.52;;
72573;SDS011;60603;52.548;13.420;2024-01-15T08:04:26;7.60;;;1.55;;
72573;SDS011;60603;52.548;13.420;2024-01-15T08:06:54;9.10;;;2.10;;
72573;SDS011;60603;52.548;13.420;2024-01-15T08:09:21;8.77;;;1.60;;
72573;SDS011;60603;52.548;13.420;2024-01-15T08:11:48;10.60;;;1.60;;
72573;SDS011;60603;52.548;13.420;2024-01-15T08:14:18;7.50;;;1.70;;
72573;SDS011;60603;52.548;13.420;2024-01-15T08:16:45;12.10;;;1.58;;
72573;SDS011;60603;52.548;13.420;2024-01-15T08:19:13;6.88;;;1.50;;
72573;SDS011;60603;52.548;13.420;2024-01-15T08:21:41;5.63;;;1.25;;
72573;SDS011;60603;52.548;13.420;2024-01-15T08:24:08;9.38;;;1.92;;
72573;SDS011;60603;52.548;13.420;2024-01-15T08:26:37;5.57;;;1.48;;
72573;SDS011;60603;52.548;13.420;2024-01-15T08:29:04;9.07;;;2.03;;
72573;SDS011;60603;52.548;13.420;2024-01-15T08:31:31;6.70;;;1.55;;
72573;SDS011;60603;52.548;13.420;2024-01-15T08:33:58;6.22;;;1.83;;
72573;SDS011;60603;52.548;13.420;2024-01-15T08:36:26;4.85;;;1.30;;
72573;SDS011;60603;52.548;13.420;2024-01-15T08:38:53;5.05;;;1.40;;
72573;SDS011;60603;52.548;13.420;2024-01-15T08:41:20;10.63;;;1.83;;
72573;SDS011;60603;52.548;13.420;2024-01-15T08:43:47;6.18;;;1.25;;
72573;SDS011;60603;52.548;13.420;2024-01-15T08:46:14;5.50;;;1.48;;
72573;SDS011;60603;52.548;13.420;2024-01-15T08:48:41;8.20;;;1.52;;
72573;SDS011;60603;52.548;13.420;2024-01-15T08:51:08;4.82;;;1.40;;
72573;SDS011;60603;52.548;13.420;2024-01-15T08:53:35;5.40;;;1.50;;
72573;SDS011;60603;52.548;13.420;2024-01-15T08:56:02;4.85;;;1.70;;
72573;SDS011;60603;52.548;13.420;2024-01-15T08:58:29;6.88;;;2.03;;
72573;SDS011;60603;52.548;13.420;2024-01-15T09:00:56;7.03;;;1.48;;
72573;SDS011;60603;52.548;13.420;2024-01-15T09:03:23;6.05;;;1.73;;
72573;SDS011;60603;52.548;13.420;2024-01-15T09:05:50;9.27;;;2.33;;
72573;SDS011;60603;52.548;13.420;2024-01-15T09:08:18;7.97;;;2.28;;
72573;SDS011;60603;52.548;13.420;2024-01-15T09:10:44;8.05;;;2.05;;
72573;SDS011;60603;52.548;13.420;2024-01-15T09:13:12;4.43;;;1.65;;
72573;SDS011;60603;52.548;13.420;2024-01-15T09:15:39;8.02;;;1.38;;
72573;SDS011;60603;52.548;13.420;2024-01-15T09:18:06;5.57;;;1.42;;
72573;SDS011;60603;52.548;13.420;2024-01-15T09:20:34;5.70;;;1.45;;
72573;SDS011;60603;52.548;13.420;2024-01-15T09:23:02;9.25;;;1.65;;
72573;SDS011;60603;52.548;13.420;2024-01-15T09:25:30;5.43;;;1.70;;
72573;SDS011;60603;52.548;13.420;2024-01-15T09:27:57;6.85;;;1.83;;
72573;SDS011;60603;52.548;13.420;2024-01-15T09:30:24;7.65;;;1.73;;
72573;SDS011;60603;52.548;13.420;2024-01-15T09:32:51;8.25;;;2.03;;
72573;SDS011;60603;52.548;13.420;2024-01-15T09:35:18;7.20;;;1.90;;
72573;SDS011;60603;52.548;13.420;2024-01-15T09:40:15;11.68;;;1.77;;
72573;SDS011;60603;52.548;13.420;2024-01-15T09:42:44;7.45;;;1.58;;
72573;SDS011;60603;52.548;13.420;2024-01-15T09:45:11;11.80;;;2.33;;
72573;SDS011;60603;52.548;13.420;2024-01-15T09:47:40;2.97;;;1.20;;
72573;SDS011;60603;52.548;13.420;2024-01-15T09:50:11;5.40;;;1.40;;
72573;SDS011;60603;52.548;13.420;2024-01-15T09:52:40;4.97;;;1.60;;
72573;SDS011;60603;52.548;13.420;2024-01-15T09:55:07;5.32;;;1.50;;
72573;SDS011;60603;52.548;13.420;2024-01-15T09:57:37;4.68;;;1.60;;
72573;SDS011;60603;52.548;13.420;2024-01-15T10:00:05;7.50;;;1.55;;
72573;SDS011;60603;52.548;13.420;2024-01-15T10:02:33;4.72;;;1.25;;
72573;SDS011;60603;52.548;13.420;2024-01-15T10:05:02;4.10;;;1.60;;
72573;SDS011;60603;52.548;13.420;2024-01-15T10:07:30;4.45;;;1.35;;
72573;SDS011;60603;52.548;13.420;2024-01-15T10:09:59;4.43;;;1.45;;
72573;SDS011;60603;52.548;13.420;2024-01-15T10:12:27;2.92;;;1.10;;
72573;SDS011;60603;52.548;13.420;2024-01-15T10:14:55;6.28;;;1.45;;
72573;SDS011;60603;52.548;13.420;2024-01-15T10:17:23;2.63;;;0.85;;
72573;SDS011;60603;52.548;13.420;2024-01-15T10:19:51;7.97;;;1.50;;
72573;SDS011;60603;52.548;13.420;2024-01-15T10:22:18;4.93;;;1.63;;
72573;SDS011;60603;52.548;13.420;2024-01-15T10:24:45;6.20;;;1.38;;
72573;SDS011;60603;52.548;13.420;2024-01-15T10:27:15;3.72;;;1.30;;
72573;SDS011;60603;52.548;13.420;2024-01-15T10:29:42;4.32;;;1.17;;
72573;SDS011;60603;52.548;13.420;2024-01-15T10:32:11;7.18;;;1.27;;
72573;SDS011;60603;52.548;13.420;2024-01-15T10:34:38;4.60;;;1.10;;
72573;SDS011;60603;52.548;13.420;2024-01-15T10:37:10;5.18;;;1.05;;
72573;SDS011;60603;52.548;13.420;2024-01-15T10:39:37;3.60;;;1.35;;
72573;SDS011;60603;52.548;13.420;2024-01-15T10:42:05;4.63;;;1.27;;
72573;SDS011;60603;52.548;13.420;2024-01-15T10:44:33;3.72;;;1.40;;
72573;SDS011;60603;52.548;13.420;2024-01-15T10:47:01;4.93;;;1.45;;
72573;SDS011;60603;52.548;13.420;2024-01-15T10:49:28;3.08;;;1.30;;
72573;SDS011;60603;52.548;13.420;2024-01-15T10:52:02;4.13;;;1.30;;
72573;SDS011;60603;52.548;13.420;2024-01-15T10:54:30;3.53;;;1.08;;
72573;SDS011;60603;52.548;13.420;2024-01-15T10:56:57;5.22;;;1.10;;
72573;SDS011;60603;52.548;13.420;2024-01-15T10:59:24;6.38;;;1.80;;
72573;SDS011;60603;52.548;13.420;2024-01-15T11:01:52;3.03;;;1.15;;
72573;SDS011;60603;52.548;13.420;2024-01-15T11:04:21;7.15;;;1.50;;
72573;SDS011;60603;52.548;13.420;2024-01-15T11:06:51;3.60;;;1.00;;
72573;SDS011;60603;52.548;13.420;2024-01-15T11:09:21;3.15;;;0.98;;
72573;SDS011;60603;52.548;13.420;2024-01-15T11:11:51;3.33;;;1.10;;
72573;SDS011;60603;52.548;13.420;2024-01-15T11:14:38;3.50;;;1.30;;
72573;SDS011;60603;52.548;13.420;2024-01-15T11:17:06;3.63;;;1.02;;
72573;SDS011;60603;52.548;13.420;2024-01-15T11:19:38;3.50;;;1.20;;
72573;SDS011;60603;52.548;13.420;2024-01-15T11:22:10;4.43;;;1.30;;
72573;SDS011;60603;52.548;13.420;2024-01-15T11:24:39;3.95;;;1.20;;
72573;SDS011;60603;52.548;13.420;2024-01-15T11:27:07;2.78;;;1.23;;
72573;SDS011;60603;52.548;13.420;2024-01-15T11:29:35;4.18;;;1.25;;
72573;SDS011;60603;52.548;13.420;2024-01-15T11:32:03;3.63;;;0.90;;
72573;SDS011;60603;52.548;13.420;2024-01-15T11:37:27;1.80;;;0.88;;
72573;SDS011;60603;52.548;13.420;2024-01-15T11:40:14;5.38;;;1.10;;
72573;SDS011;60603;52.548;13.420;2024-01-15T11:42:45;4.70;;;1.00;;
72573;SDS011;60603;52.548;13.420;2024-01-15T11:45:13;5.05;;;1.40;;
72573;SDS011;60603;52.548;13.420;2024-01-15T11:50:19;3.53;;;1.05;;
72573;SDS011;60603;52.548;13.420;2024-01-15T11:52:51;3.70;;;1.42;;
72573;SDS011;60603;52.548;13.420;2024-01-15T11:55:27;3.70;;;1.30;;
72573;SDS011;60603;52.548;13.420;2024-01-15T11:58:00;3.20;;;1.20;;
72573;SDS011;60603;52.548;13.420;2024-01-15T12:00:28;6.07;;;1.67;;
72573;SDS011;60603;52.548;13.420;2024-01-15T12:02:55;4.53;;;1.67;;
72573;SDS011;60603;52.548;13.420;2024-01-15T12:05:23;3.67;;;1.42;;
72573;SDS011;60603;52.548;13.420;2024-01-15T12:07:50;6.60;;;1.60;;
72573;SDS011;60603;52.548;13.420;2024-01-15T12:10:17;4.38;;;1.70;;
72573;SDS011;60603;52.548;13.420;2024-01-15T12:12:59;3.88;;;1.67;;
72573;SDS011;60603;52.548;13.420;2024-01-15T12:15:28;5.13;;;1.25;;
72573;SDS011;60603;52.548;13.420;2024-01-15T12:17:56;3.45;;;1.30;;
72573;SDS011;60603;52.548;13.420;2024-01-15T12:20:25;4.45;;;1.58;;
72573;SDS011;60603;52.548;13.420;2024-01-15T12:22:53;5.75;;;1.15;;
72573;SDS011;60603;52.548;13.420;2024-01-15T12:25:29;6.43;;;1.35;;
72573;SDS011;60603;52.548;13.420;2024-01-15T12:27:58;5.03;;;1.58;;
72573;SDS011;60603;52.548;13.420;2024-01-15T12:30:27;2.70;;;1.23;;
72573;SDS011;60603;52.548;13.420;2024-01-15T12:32:54;3.47;;;0.85;;
72573;SDS011;60603;52.548;13.420;2024-01-15T12:35:23;2.72;;;1.20;;
72573;SDS011;60603;52.548;13.420;2024-01-15T12:37:50;7.57;;;1.35;;
72573;SDS011;60603;52.548;13.420;2024-01-15T12:40:20;3.15;;;1.23;;
72573;SDS011;60603;52.548;13.420;2024-01-15T12:42:48;4.78;;;2.70;;
72573;SDS011;60603;52.548;13.420;2024-01-15T12:45:15;2.88;;;1.30;;
72573;SDS011;60603;52.548;13.420;2024-01-15T12:47:42;3.80;;;1.20;;
72573;SDS011;60603;52.548;13.420;2024-01-15T12:50:12;2.95;;;1.00;;
72573;SDS011;60603;52.548;13.420;2024-01-15T12:52:46;1.77;;;0.90;;
72573;SDS011;60603;52.548;13.420;2024-01-15T12:55:13;1.33;;;0.77;;
72573;SDS011;60603;52.548;13.420;2024-01-15T12:57:40;1.58;;;0.80;;
72573;SDS011;60603;52.548;13.420;2024-01-15T13:00:07;3.10;;;1.08;;
72573;SDS011;60603;52.548;13.420;2024-01-15T13:02:39;5.13;;;1.40;;
72573;SDS011;60603;52.548;13.420;2024-01-15T13:05:08;2.25;;;0.85;;
72573;SDS011;60603;52.548;13.420;2024-01-15T13:07:36;3.47;;;1.00;;
72573;SDS011;60603;52.548;13.420;2024-01-15T13:10:04;1.98;;;0.80;;
72573;SDS011;60603;52.548;13.420;2024-01-15T13:12:32;2.67;;;0.90;;
72573;SDS011;60603;52.548;13.420;2024-01-15T13:15:00;2.75;;;1.02;;
72573;SDS011;60603;52.548;13.420;2024-01-15T13:17:29;2.50;;;1.10;;
72573;SDS011;60603;52.548;13.420;2024-01-15T13:19:57;2.22;;;1.17;;
72573;SDS011;60603;52.548;13.420;2024-01-15T13:22:24;2.55;;;1.10;;
72573;SDS011;60603;52.548;13.420;2024-01-15T13:24:56;2.42;;;1.10;;
72573;SDS011;60603;52.548;13.420;2024-01-15T13:27:23;3.83;;;1.23;;
72573;SDS011;60603;52.548;13.420;2024-01-15T13:29:50;5.18;;;1.20;;
72573;SDS011;60603;52.548;13.420;2024-01-15T13:32:19;4.03;;;1.40;;
72573;SDS011;60603;52.548;13.420;2024-01-15T13:34:50;4.40;;;1.80;;
72573;SDS011;60603;52.548;13.420;2024-01-15T13:37:17;5.20;;;1.20;;
72573;SDS011;60603;52.548;13.420;2024-01-15T13:39:44;4.80;;;1.05;;
72573;SDS011;60603;52.548;13.420;2024-01-15T13:42:11;2.13;;;1.10;;
72573;SDS011;60603;52.548;13.420;2024-01-15T13:44:40;3.63;;;1.40;;
72573;SDS011;60603;52.548;13.420;2024-01-15T13:47:06;3.15;;;1.08;;
72573;SDS011;60603;52.548;13.420;2024-01-15T13:49:34;3.10;;;1.23;;
72573;SDS011;60603;52.548;13.420;2024-01-15T13:52:02;3.83;;;1.30;;
72573;SDS011;60603;52.548;13.420;2024-01-15T13:54:30;2.55;;;0.95;;
72573;SDS011;60603;52.548;13.420;2024-01-15T13:57:14;4.07;;;1.75;;
72573;SDS011;60603;52.548;13.420;2024-01-15T13:59:42;4.28;;;1.30;;
72573;SDS011;60603;52.548;13.420;2024-01-15T14:02:08;4.55;;;1.30;;
72573;SDS011;60603;52.548;13.420;2024-01-15T14:04:37;2.63;;;1.17;;
72573;SDS011;60603;52.548;13.420;2024-01-15T14:07:05;7.07;;;1.27;;
72573;SDS011;60603;52.548;13.420;2024-01-15T14:09:33;3.50;;;1.20;;
72573;SDS011;60603;52.548;13.420;2024-01-15T14:12:00;3.22;;;1.30;;
72573;SDS011;60603;52.548;13.420;2024-01-15T14:14:27;5.95;;;1.20;;
72573;SDS011;60603;52.548;13.420;2024-01-15T14:16:54;3.58;;;1.25;;
72573;SDS011;60603;52.548;13.420;2024-01-15T14:19:21;5.53;;;1.10;;
72573;SDS011;60603;52.548;13.420;2024-01-15T14:21:48;3.95;;;1.25;;
72573;SDS011;60603;52.548;13.420;2024-01-15T14:24:16;6.90;;;1.30;;
72573;SDS011;60603;52.548;13.420;2024-01-15T14:26:44;5.47;;;1.20;;
72573;SDS011;60603;52.548;13.420;2024-01-15T14:29:11;4.13;;;1.42;;
72573;SDS011;60603;52.548;13.420;2024-01-15T14:31:38;3.95;;;2.00;;
72573;SDS011;60603;52.548;13.420;2024-01-15T14:34:06;5.72;;;1.88;;
72573;SDS011;60603;52.548;13.420;2024-01-15T14:36:34;5.07;;;1.33;;
72573;SDS011;60603;52.548;13.420;2024-01-15T14:39:01;6.18;;;1.40;;
72573;SDS011;60603;52.548;13.420;2024-01-15T14:41:29;4.93;;;1.40;;
72573;SDS011;60603;52.548;13.420;2024-01-15T14:43:56;5.47;;;1.10;;